createdAt,value
2022-12-26T00:00:23.871Z,11.00
2022-12-26T00:04:50.078Z,11.10
2022-12-26T00:09:10.544Z,11.20
2022-12-26T00:13:39.788Z,11.20
2022-12-26T00:17:58.153Z,11.30
2022-12-26T00:22:15.936Z,11.30
2022-12-26T00:26:36.158Z,11.30
2022-12-26T00:30:53.256Z,11.30
2022-12-26T00:35:10.616Z,11.30
2022-12-26T00:39:27.999Z,11.30
2022-12-26T00:43:45.240Z,11.30
2022-12-26T00:48:02.501Z,11.30
2022-12-26T00:52:20.168Z,11.20
2022-12-26T00:56:37.248Z,11.30
2022-12-26T01:00:55.254Z,11.40
2022-12-26T01:05:12.431Z,11.30
2022-12-26T01:09:29.511Z,11.30
2022-12-26T01:13:46.587Z,11.40
2022-12-26T01:18:05.200Z,11.30
2022-12-26T01:22:23.049Z,11.40
2022-12-26T01:26:40.205Z,11.40
2022-12-26T01:31:01.680Z,11.30
2022-12-26T01:35:18.778Z,11.30
2022-12-26T01:39:35.849Z,11.20
2022-12-26T01:43:57.266Z,11.30
2022-12-26T01:48:35.290Z,11.20
2022-12-26T01:52:54.933Z,11.10
2022-12-26T01:57:35.463Z,11.10
2022-12-26T02:01:54.224Z,11.10
2022-12-26T02:06:13.683Z,11.10
2022-12-26T02:10:36.186Z,11.00
2022-12-26T02:14:53.300Z,11.20
2022-12-26T02:19:39.991Z,11.10
2022-12-26T02:24:36.880Z,11.20
2022-12-26T02:29:12.970Z,11.10
2022-12-26T02:33:50.268Z,11.00
2022-12-26T02:38:28.178Z,11.00
2022-12-26T02:42:45.249Z,11.10
2022-12-26T02:47:43.990Z,11.10
2022-12-26T02:52:33.211Z,10.90
2022-12-26T02:57:15.831Z,11.00
2022-12-26T03:01:57.892Z,11.10
2022-12-26T03:06:41.364Z,11.10
2022-12-26T03:11:18.055Z,11.30
2022-12-26T03:16:22.576Z,11.30
2022-12-26T03:20:39.877Z,11.20
2022-12-26T03:25:16.747Z,11.10
2022-12-26T03:30:00.302Z,11.20
2022-12-26T03:34:17.427Z,11.30
2022-12-26T03:38:55.359Z,11.10
2022-12-26T03:44:04.883Z,11.00
2022-12-26T03:48:56.732Z,11.00
2022-12-26T03:53:47.886Z,11.10
2022-12-26T03:58:39.044Z,11.00
2022-12-26T04:03:21.092Z,10.90
2022-12-26T04:08:02.595Z,11.00
2022-12-26T04:12:42.429Z,10.80
2022-12-26T04:17:49.532Z,10.80
2022-12-26T04:22:29.726Z,10.90
2022-12-26T04:27:09.231Z,10.90
2022-12-26T04:32:17.571Z,10.90
2022-12-26T04:37:03.791Z,10.90
2022-12-26T04:41:40.956Z,11.00
2022-12-26T04:45:58.421Z,10.90
2022-12-26T04:50:15.572Z,10.90
2022-12-26T04:54:33.138Z,10.90
2022-12-26T04:58:50.208Z,10.70
2022-12-26T05:03:27.643Z,10.80
2022-12-26T05:08:03.315Z,10.80
2022-12-26T05:12:21.112Z,10.80
2022-12-26T05:16:56.939Z,10.90
2022-12-26T05:21:36.467Z,11.00
2022-12-26T05:26:12.150Z,11.00
2022-12-26T05:30:29.601Z,10.90
2022-12-26T05:34:46.695Z,10.80
2022-12-26T05:39:04.707Z,10.90
2022-12-26T05:43:21.919Z,10.90
2022-12-26T05:47:39.107Z,10.80
2022-12-26T05:51:56.162Z,11.00
2022-12-26T05:56:15.370Z,11.00
2022-12-26T06:00:32.766Z,11.10
2022-12-26T06:04:49.912Z,11.00
2022-12-26T06:09:07.017Z,11.10
2022-12-26T06:13:24.470Z,11.00
2022-12-26T06:17:41.556Z,10.90
2022-12-26T06:21:58.705Z,11.00
2022-12-26T06:26:16.877Z,10.90
2022-12-26T06:30:33.948Z,10.90
2022-12-26T06:34:51.036Z,11.00
2022-12-26T06:39:08.120Z,10.90
2022-12-26T06:43:25.204Z,10.80
2022-12-26T06:47:42.277Z,10.70
2022-12-26T06:51:59.376Z,10.70
2022-12-26T06:56:20.247Z,10.70
2022-12-26T07:00:37.424Z,10.60
2022-12-26T07:04:54.547Z,10.50
2022-12-26T07:09:16.776Z,10.70
2022-12-26T07:13:33.884Z,10.70
2022-12-26T07:17:52.328Z,10.70
2022-12-26T07:22:09.409Z,10.70
2022-12-26T07:26:26.687Z,10.70
2022-12-26T07:30:48.368Z,10.70
2022-12-26T07:35:05.800Z,10.70
2022-12-26T07:39:22.925Z,10.80
2022-12-26T07:43:39.993Z,11.10
2022-12-26T07:47:57.716Z,11.20
2022-12-26T07:52:14.801Z,11.10
2022-12-26T07:56:32.649Z,11.20
2022-12-26T08:00:49.840Z,11.30
2022-12-26T08:05:07.213Z,11.30
2022-12-26T08:09:24.389Z,11.10
2022-12-26T08:13:41.560Z,11.10
2022-12-26T08:17:58.717Z,11.10
2022-12-26T08:22:15.944Z,11.20
2022-12-26T08:26:33.081Z,11.20
2022-12-26T08:30:50.284Z,11.30
2022-12-26T08:35:07.961Z,11.40
2022-12-26T08:39:25.340Z,11.40
2022-12-26T08:44:25.331Z,11.50
2022-12-26T08:48:19.630Z,11.50
2022-12-26T08:52:36.780Z,11.50
2022-12-26T08:56:53.929Z,11.60
2022-12-26T09:01:23.499Z,11.70
2022-12-26T09:05:40.715Z,11.70
2022-12-26T09:09:58.395Z,11.80
2022-12-26T09:14:15.505Z,12.00
2022-12-26T09:18:32.847Z,12.10
2022-12-26T09:22:53.031Z,12.10
2022-12-26T09:27:10.802Z,12.00
2022-12-26T09:31:29.818Z,12.00
2022-12-26T09:35:48.049Z,11.90
2022-12-26T09:40:06.103Z,11.90
2022-12-26T09:44:38.654Z,11.90
2022-12-26T09:49:08.314Z,11.90
2022-12-26T09:53:35.901Z,11.90
2022-12-26T09:57:56.973Z,11.90
2022-12-26T10:02:20.026Z,11.90
2022-12-26T10:06:41.747Z,11.90
2022-12-26T10:11:02.487Z,12.00
2022-12-26T10:15:38.501Z,12.00
2022-12-26T10:20:01.342Z,11.90
2022-12-26T10:24:25.047Z,11.70
2022-12-26T10:28:51.465Z,11.70
2022-12-26T10:33:24.041Z,11.80
2022-12-26T10:37:42.191Z,11.90
2022-12-26T10:42:09.383Z,12.00
2022-12-26T10:46:36.632Z,12.20
2022-12-26T10:50:53.880Z,12.30
2022-12-26T10:55:27.083Z,12.40
2022-12-26T10:59:48.298Z,12.40
2022-12-26T11:04:18.838Z,12.50
2022-12-26T11:08:47.586Z,12.40
2022-12-26T11:13:19.120Z,12.20
2022-12-26T11:17:43.180Z,12.10
2022-12-26T11:22:29.429Z,11.90
2022-12-26T11:26:46.905Z,11.90
2022-12-26T11:31:06.705Z,11.80
2022-12-26T11:35:28.351Z,11.80
2022-12-26T11:39:49.725Z,11.70
2022-12-26T11:44:09.587Z,11.80
2022-12-26T11:48:27.474Z,11.90
2022-12-26T11:52:54.080Z,11.80
2022-12-26T11:57:22.085Z,11.90
2022-12-26T12:01:39.928Z,11.80
2022-12-26T12:06:27.383Z,11.80
2022-12-26T12:11:12.643Z,11.70
2022-12-26T12:15:39.443Z,11.60
2022-12-26T12:20:27.039Z,11.60
2022-12-26T12:24:56.245Z,11.50
2022-12-26T12:29:51.758Z,11.20
2022-12-26T12:35:03.111Z,10.80
2022-12-26T12:39:37.742Z,10.40
2022-12-26T12:44:10.209Z,10.40
2022-12-26T12:48:38.181Z,10.30
2022-12-26T12:52:58.229Z,10.20
2022-12-26T12:57:56.455Z,10.10
2022-12-26T13:02:23.620Z,10.10
2022-12-26T13:06:49.210Z,10.00
2022-12-26T13:11:37.172Z,10.00
2022-12-26T13:16:00.280Z,9.90
2022-12-26T13:20:38.719Z,10.00
2022-12-26T13:24:59.861Z,10.00
2022-12-26T13:29:38.287Z,10.20
2022-12-26T13:33:56.194Z,10.20
2022-12-26T13:38:13.811Z,10.10
2022-12-26T13:42:54.973Z,10.10
2022-12-26T13:47:36.425Z,10.00
2022-12-26T13:51:56.066Z,9.90
2022-12-26T13:56:18.942Z,9.80
2022-12-26T14:00:48.161Z,9.80
2022-12-26T14:05:12.089Z,9.70
2022-12-26T14:09:53.131Z,9.70
2022-12-26T14:14:31.590Z,9.60
2022-12-26T14:19:19.839Z,9.50
2022-12-26T14:24:16.426Z,9.40
2022-12-26T14:28:52.052Z,9.50
2022-12-26T14:33:42.573Z,9.50
2022-12-26T14:38:05.547Z,9.50
2022-12-26T14:42:43.221Z,9.50
2022-12-26T14:47:02.352Z,9.50
2022-12-26T14:51:19.453Z,9.50
2022-12-26T14:55:46.948Z,9.50
2022-12-26T15:00:27.928Z,9.50
2022-12-26T15:04:55.917Z,9.50
2022-12-26T15:09:37.007Z,9.60
2022-12-26T15:14:12.866Z,9.60
2022-12-26T15:18:51.670Z,9.60
2022-12-26T15:23:20.973Z,9.60
2022-12-26T15:28:18.101Z,9.60
2022-12-26T15:32:49.766Z,9.50
2022-12-26T15:37:37.083Z,9.50
2022-12-26T15:42:08.392Z,9.30
2022-12-26T15:46:41.183Z,9.20
2022-12-26T15:51:05.346Z,9.10
2022-12-26T15:55:46.380Z,9.20
2022-12-26T16:00:11.226Z,9.10
2022-12-26T16:04:39.059Z,9.10
2022-12-26T16:09:21.090Z,9.20
2022-12-26T16:14:11.306Z,9.20
2022-12-26T16:18:31.303Z,9.30
2022-12-26T16:22:48.476Z,9.30
2022-12-26T16:27:07.886Z,9.30
2022-12-26T16:31:28.597Z,9.50
2022-12-26T16:35:45.826Z,9.50
2022-12-26T16:40:24.092Z,9.50
2022-12-26T16:44:44.337Z,9.60
2022-12-26T16:49:02.129Z,9.70
2022-12-26T16:53:22.617Z,9.70
2022-12-26T16:57:42.424Z,9.70
2022-12-26T17:02:00.595Z,9.70
2022-12-26T17:06:25.616Z,9.70
2022-12-26T17:10:48.752Z,9.60
2022-12-26T17:15:07.137Z,9.60
2022-12-26T17:19:29.605Z,9.70
2022-12-26T17:24:20.115Z,9.70
2022-12-26T17:28:37.595Z,9.50
2022-12-26T17:32:56.102Z,9.20
2022-12-26T17:37:32.084Z,9.00
2022-12-26T17:41:52.639Z,8.90
2022-12-26T17:46:16.047Z,8.90
2022-12-26T17:50:36.476Z,8.80
2022-12-26T17:54:56.186Z,8.80
2022-12-26T17:59:14.624Z,8.70
2022-12-26T18:03:31.731Z,8.70
2022-12-26T18:07:51.770Z,8.60
2022-12-26T18:12:12.481Z,8.50
2022-12-26T18:16:29.990Z,8.50
2022-12-26T18:20:47.132Z,8.50
2022-12-26T18:25:04.510Z,8.40
2022-12-26T18:29:22.029Z,8.20
2022-12-26T18:33:39.146Z,8.10
2022-12-26T18:37:56.280Z,8.10
2022-12-26T18:42:14.820Z,8.10
2022-12-26T18:46:32.095Z,8.10
2022-12-26T18:50:49.179Z,8.10
2022-12-26T18:55:06.896Z,8.10
2022-12-26T18:59:24.033Z,8.10
2022-12-26T19:03:42.101Z,8.10
2022-12-26T19:08:00.914Z,8.10
2022-12-26T19:12:18.027Z,8.20
2022-12-26T19:16:37.934Z,8.20
2022-12-26T19:20:55.107Z,8.30
2022-12-26T19:25:13.456Z,8.40
2022-12-26T19:29:30.677Z,8.50
2022-12-26T19:33:47.833Z,8.40
2022-12-26T19:38:04.949Z,8.30
2022-12-26T19:42:22.065Z,8.20
2022-12-26T19:46:39.361Z,8.20
2022-12-26T19:51:03.717Z,8.10
2022-12-26T19:55:20.812Z,8.10
2022-12-26T19:59:37.987Z,7.90
2022-12-26T20:04:02.072Z,7.80
2022-12-26T20:08:19.161Z,7.80
2022-12-26T20:12:36.368Z,7.70
2022-12-26T20:17:07.051Z,7.70
2022-12-26T20:21:24.841Z,7.60
2022-12-26T20:25:41.944Z,7.60
2022-12-26T20:29:59.087Z,7.50
2022-12-26T20:34:16.324Z,7.50
2022-12-26T20:38:34.281Z,7.40
2022-12-26T20:42:51.360Z,7.30
2022-12-26T20:47:09.011Z,7.30
2022-12-26T20:51:36.456Z,7.30
2022-12-26T20:55:57.436Z,7.40
2022-12-26T21:00:15.154Z,7.40
2022-12-26T21:04:33.197Z,7.40
2022-12-26T21:08:52.078Z,7.30
2022-12-26T21:13:09.470Z,7.30
2022-12-26T21:17:26.566Z,7.20
2022-12-26T21:21:46.514Z,7.20
2022-12-26T21:26:04.613Z,7.10
2022-12-26T21:30:21.853Z,7.10
2022-12-26T21:34:39.016Z,7.00
2022-12-26T21:38:57.081Z,7.00
2022-12-26T21:43:14.567Z,7.00
2022-12-26T21:47:31.640Z,6.80
2022-12-26T21:51:48.713Z,5.80
2022-12-26T21:56:10.331Z,5.30
2022-12-26T22:00:27.576Z,5.20
2022-12-26T22:04:44.676Z,5.30
2022-12-26T22:09:02.103Z,5.30
2022-12-26T22:13:20.802Z,5.40
2022-12-26T22:17:37.852Z,5.50
2022-12-26T22:21:55.065Z,5.60
2022-12-26T22:26:15.125Z,5.60
2022-12-26T22:30:32.263Z,5.60
2022-12-26T22:34:49.709Z,5.50
2022-12-26T22:39:07.156Z,5.30
2022-12-26T22:43:24.991Z,5.30
2022-12-26T22:47:42.138Z,5.10
2022-12-26T22:51:59.597Z,4.90
2022-12-26T22:56:16.700Z,4.80
2022-12-26T23:00:33.785Z,4.70
2022-12-26T23:04:51.351Z,4.60
2022-12-26T23:09:14.057Z,4.70
2022-12-26T23:13:31.335Z,4.70
2022-12-26T23:18:33.346Z,4.70
2022-12-26T23:22:50.688Z,4.70
2022-12-26T23:27:27.781Z,4.70
2022-12-26T23:31:44.905Z,4.70
2022-12-26T23:36:01.988Z,4.80
2022-12-26T23:40:20.573Z,4.80
2022-12-26T23:44:37.594Z,4.80
2022-12-26T23:48:54.561Z,4.80
2022-12-26T23:53:11.764Z,4.80
2022-12-26T23:57:29.004Z,4.80
